• Join FlightAware (Why Join?)
  • Login
  • US Flag 
02:11AM EDT


 

Airport Tracker/Info


-or-


 

Live Flight TrackerFlight Track Log ✈ TAM3600 ✈ 03-Oct-2013 ✈ SBSP / CGH - SBSV / SSA

Flight Track Log - Related Links

Times and Time Zones

All times are in EDT time to prevent confusion due to time zone crossing. See the TAM3600 flight status page for this flight to view local times or setup timezone preferences in your user account.

Time Position Orientation Groundspeed Altitude Reporting Facility
EDT Latitude Longitude Course Direction KTS MPH feet Rate Location/Type
08:25PM -21.9740 -45.7450 19° North 444 511 33,300  Level FlightAware
08:26PM -21.8750 -45.7080 19° North 442 509 33,900 600 Climbing FlightAware
08:27PM -21.7970 -45.6780 20° North 446 513 34,400 780 Climbing FlightAware
08:27PM -21.7030 -45.6430 19° North 443 510 35,000 540 Climbing FlightAware
08:28PM -21.6080 -45.6070 19° North 459 528 35,000  Level FlightAware
08:29PM -21.5290 -45.5760 20° North 471 542 35,000  Level FlightAware
08:29PM -21.4700 -45.5450 26° Northeast 473 544 35,000  Level FlightAware
08:30PM -21.4300 -45.5190 31° Northeast 478 550 35,000  Level FlightAware
08:30PM -21.3360 -45.4540 33° Northeast 479 551 35,000  Level FlightAware
08:31PM -21.2570 -45.4010 32° Northeast 479 551 35,000 180 Level FlightAware
08:32PM -21.1890 -45.3540 33° Northeast 478 550 35,300 480 Climbing FlightAware
08:32PM -21.1210 -45.3050 34° Northeast 485 558 35,600 660 Climbing FlightAware
08:33PM -21.0640 -45.2470 44° Northeast 486 559 36,100 600 Climbing FlightAware
08:34PM -20.9880 -45.1670 45° Northeast 490 564 36,500 480 Climbing FlightAware
08:34PM -20.9270 -45.1050 44° Northeast 490 564 36,800 420 Climbing FlightAware
08:35PM -20.8710 -45.0470 44° Northeast 495 570 37,000 120 Climbing FlightAware
08:35PM -20.8150 -44.9890 44° Northeast 490 564 37,000  Level FlightAware
08:36PM -20.7560 -44.9280 44° Northeast 488 562 37,000  Level FlightAware
08:37PM -20.6990 -44.8700 44° Northeast 485 558 37,000  Level FlightAware
08:37PM -20.6340 -44.8030 44° Northeast 489 563 37,000  Level FlightAware
08:38PM -20.5770 -44.7450 44° Northeast 491 565 37,000 60 Level FlightAware
08:39PM -20.5110 -44.6780 44° Northeast 492 566 37,100 60 Climbing FlightAware
08:39PM -20.4630 -44.6280 44° Northeast 492 566 37,100 -120 Level FlightAware
08:40PM -20.4030 -44.5680 43° Northeast 491 565 37,000 -120 Descending FlightAware
08:40PM -20.3500 -44.5130 44° Northeast 490 564 37,000  Level FlightAware
08:41PM -20.2910 -44.4530 44° Northeast 491 565 37,000  Level FlightAware
08:41PM -20.2320 -44.3930 44° Northeast 493 567 37,000  Level FlightAware
08:42PM -20.1650 -44.3250 44° Northeast 495 570 37,000  Level FlightAware
08:43PM -20.1160 -44.2750 44° Northeast 495 570 37,000  Level FlightAware
08:43PM -20.0520 -44.2100 44° Northeast 494 568 37,000  Level FlightAware
08:44PM -19.9990 -44.1570 43° Northeast 495 570 37,000  Level FlightAware
08:44PM -19.9410 -44.0980 44° Northeast 494 568 37,000  Level FlightAware
08:45PM -19.8860 -44.0410 44° Northeast 495 570 37,000  Level FlightAware
08:45PM -19.8300 -43.9860 43° Northeast 496 571 37,000  Level FlightAware
08:46PM -19.7600 -43.9150 44° Northeast 497 572 37,000  Level FlightAware
08:47PM -19.7050 -43.8600 43° Northeast 499 574 37,000  Level FlightAware
08:47PM -19.6450 -43.7990 44° Northeast 498 573 37,000  Level FlightAware
08:48PM -19.5820 -43.7360 43° Northeast 495 570 37,000  Level FlightAware
08:48PM -19.5300 -43.6840 43° Northeast 494 568 37,000  Level FlightAware
08:49PM -19.4780 -43.6310 44° Northeast 490 564 37,000  Level FlightAware
08:49PM -19.4180 -43.5710 43° Northeast 489 563 37,000  Level FlightAware
08:50PM -19.3350 -43.4870 44° Northeast 488 562 37,000  Level FlightAware
08:51PM -19.2800 -43.4330 43° Northeast 491 565 37,000  Level FlightAware
08:52PM -19.2200 -43.3730 43° Northeast 492 566 37,000  Level FlightAware
08:52PM -19.1630 -43.3160 43° Northeast 491 565 37,000  Level FlightAware
08:53PM -19.1050 -43.2580 43° Northeast 490 564 37,000  Level FlightAware
08:53PM -19.0450 -43.1990 43° Northeast 489 563 37,000  Level FlightAware
08:54PM -18.9900 -43.1440 43° Northeast 488 562 37,000  Level FlightAware
08:54PM -18.9310 -43.0840 44° Northeast 486 559 37,000  Level FlightAware
08:55PM -18.8750 -43.0300 42° Northeast 483 556 37,000  Level FlightAware
08:56PM -18.8190 -42.9740 43° Northeast 482 555 37,000  Level FlightAware
08:56PM -18.7600 -42.9160 43° Northeast 482 555 37,000  Level FlightAware
08:57PM -18.7070 -42.8630 43° Northeast 483 556 37,000  Level FlightAware
08:57PM -18.6460 -42.8030 43° Northeast 483 556 37,000  Level FlightAware
08:58PM -18.5900 -42.7470 43° Northeast 484 557 37,000  Level FlightAware
08:59PM -18.5320 -42.6900 43° Northeast 486 559 37,000  Level FlightAware
08:59PM -18.4730 -42.6320 43° Northeast 485 558 37,000  Level FlightAware
09:00PM -18.4170 -42.5760 43° Northeast 483 556 37,000  Level FlightAware
09:00PM -18.3590 -42.5190 43° Northeast 482 555 37,000  Level FlightAware
09:01PM -18.3020 -42.4630 43° Northeast 481 554 37,000  Level FlightAware
09:01PM -18.2460 -42.4080 43° Northeast 481 554 37,000  Level FlightAware
09:02PM -18.1880 -42.3510 43° Northeast 483 556 37,000  Level FlightAware
09:03PM -18.1310 -42.2950 43° Northeast 485 558 37,000  Level FlightAware
09:03PM -18.0730 -42.2390 43° Northeast 484 557 37,000  Level FlightAware
09:04PM -18.0190 -42.1860 43° Northeast 485 558 37,000  Level FlightAware
09:04PM -17.9580 -42.1260 43° Northeast 486 559 37,000  Level FlightAware
09:05PM -17.9020 -42.0710 43° Northeast 484 557 37,000  Level FlightAware
09:06PM -17.8440 -42.0150 43° Northeast 483 556 37,000  Level FlightAware
09:06PM -17.7860 -41.9580 43° Northeast 481 554 37,000  Level FlightAware
09:07PM -17.7290 -41.9020 43° Northeast 481 554 37,000  Level FlightAware
09:07PM -17.6740 -41.8490 43° Northeast 480 552 37,000  Level FlightAware
09:08PM -17.6200 -41.7970 43° Northeast 481 554 37,000  Level FlightAware
09:09PM -17.5510 -41.7300 43° Northeast 481 554 37,000  Level FlightAware
09:09PM -17.4870 -41.6670 43° Northeast 481 554 37,000  Level FlightAware
09:10PM -17.4260 -41.6080 43° Northeast 481 554 37,000  Level FlightAware
09:11PM -17.3290 -41.5140 43° Northeast 481 554 37,000  Level FlightAware
09:11PM -17.2780 -41.4640 43° Northeast 481 554 37,000  Level FlightAware
09:12PM -17.2290 -41.4160 43° Northeast 481 554 37,000  Level FlightAware
09:13PM -17.1790 -41.3680 43° Northeast 481 554 37,000  Level FlightAware
09:13PM -17.1300 -41.3190 44° Northeast 481 554 37,000  Level FlightAware
09:14PM -17.0800 -41.2710 43° Northeast 481 554 37,000  Level FlightAware
09:15PM -16.9300 -41.1960 26° Northeast 476 548 37,000  Level FlightAware
09:15PM -16.8690 -41.1560 32° Northeast 474 545 37,000  Level FlightAware
09:16PM -16.7940 -41.1070 32° Northeast 473 544 37,000  Level FlightAware
09:16PM -16.7230 -41.0590 33° Northeast 471 542 37,000  Level FlightAware
09:17PM -16.6580 -41.0160 32° Northeast 469 540 37,000  Level FlightAware
09:18PM -16.5980 -40.9760 33° Northeast 469 540 37,000  Level FlightAware
09:18PM -16.5350 -40.9340 33° Northeast 469 540 37,000  Level FlightAware
09:19PM -16.4700 -40.8910 32° Northeast 471 542 37,000  Level FlightAware
09:19PM -16.4060 -40.8480 33° Northeast 473 544 37,000  Level FlightAware
09:20PM -16.3400 -40.8040 33° Northeast 474 545 37,000  Level FlightAware
09:20PM -16.2710 -40.7590 32° Northeast 475 547 37,000  Level FlightAware
09:21PM -16.2020 -40.7130 33° Northeast 477 549 37,000  Level FlightAware
09:22PM -16.1410 -40.6720 33° Northeast 475 547 37,000 60 Level FlightAware
09:22PM -16.0770 -40.6300 32° Northeast 473 544 37,100  Climbing FlightAware
09:23PM -16.0110 -40.5860 33° Northeast 470 541 37,000 -120 Descending FlightAware
09:23PM -15.9530 -40.5480 32° Northeast 467 537 37,000  Level FlightAware
09:24PM -15.8860 -40.5040 32° Northeast 465 535 37,000  Level FlightAware
09:25PM -15.8190 -40.4590 33° Northeast 465 535 37,000  Level FlightAware
09:25PM -15.7530 -40.4160 32° Northeast 466 536 37,000  Level FlightAware
09:26PM -15.6970 -40.3790 32° Northeast 468 539 37,000  Level FlightAware
09:26PM -15.6290 -40.3340 33° Northeast 469 540 37,000  Level FlightAware
09:27PM -15.5640 -40.2910 33° Northeast 472 543 37,000  Level FlightAware
09:27PM -15.4990 -40.2480 33° Northeast 473 544 37,000  Level FlightAware
09:28PM -15.4310 -40.2030 33° Northeast 475 547 37,000  Level FlightAware
09:29PM -15.3630 -40.1590 32° Northeast 475 547 37,000  Level FlightAware
09:30PM -15.2600 -40.0900 33° Northeast 477 549 37,000  Level FlightAware
09:30PM -15.1940 -40.0450 33° Northeast 475 547 37,000  Level FlightAware
09:31PM -15.1170 -39.9930 33° Northeast 477 549 37,000  Level FlightAware
09:32PM -15.0530 -39.9510 32° Northeast 472 543 37,000  Level FlightAware
09:32PM -14.9820 -39.9040 33° Northeast 471 542 37,000  Level FlightAware
09:33PM -14.9160 -39.8610 32° Northeast 470 541 37,000  Level FlightAware
09:33PM -14.8630 -39.8250 33° Northeast 470 541 37,000  Level FlightAware
09:34PM -14.8050 -39.7870 32° Northeast 470 541 37,000  Level FlightAware
09:35PM -14.7490 -39.7490 33° Northeast 470 541 37,000  Level FlightAware
09:35PM -14.6940 -39.7120 33° Northeast 470 541 37,000  Level FlightAware
09:36PM -14.6380 -39.6740 33° Northeast 470 541 37,000  Level FlightAware
09:36PM -14.5820 -39.6370 33° Northeast 470 541 37,000  Level FlightAware
09:37PM -14.5260 -39.5990 33° Northeast 470 541 37,000  Level FlightAware
09:38PM -14.4700 -39.5620 33° Northeast 470 541 37,000  Level FlightAware
09:38PM -14.4150 -39.5240 34° Northeast 470 541 37,000  Level FlightAware
09:39PM -14.3590 -39.4870 33° Northeast 470 541 37,000  Level FlightAware
09:39PM -14.3060 -39.4520 33° Northeast 470 541 37,000  Level FlightAware
09:40PM -14.2520 -39.4150 34° Northeast 470 541 37,000  Level FlightAware
09:41PM -14.1960 -39.3780 33° Northeast 470 541 37,000  Level FlightAware
09:41PM -14.1400 -39.3410 33° Northeast 470 541 37,000  Level FlightAware
09:42PM -14.0840 -39.3030 33° Northeast 470 541 37,000  Level FlightAware
09:42PM -14.0290 -39.2660 33° Northeast 470 541 37,000 -3,000 Level FlightAware
09:45PM -13.8649 -39.1281 39° Northeast  Level Estimated
09:46PM -13.7880 -39.0635 39° Northeast  Level Estimated
09:47PM -13.7111 -38.9989 39° Northeast  Level Estimated
09:48PM -13.6341 -38.9344 39° Northeast  Level Estimated
09:49PM -13.5571 -38.8699 39° Northeast  Level Estimated
09:50PM -13.4801 -38.8055 39° Northeast  Level Estimated
09:51PM -13.4031 -38.7411 39° Northeast  Level Estimated
09:52PM -13.3260 -38.6768 39° Northeast  Level Estimated
09:53PM -13.2490 -38.6125 39° Northeast  Level Estimated
09:53PM -13.1150 -38.6320 39° Northeast 243 280 4,900  Level FlightAware
09:53PM -13.0950 -38.6170 36° Northeast 243 280 4,900 -480 Level FlightAware
09:53PM -13.0730 -38.5990 39° Northeast 241 277 4,500 -1,200 Descending FlightAware
09:54PM -13.0480 -38.5770 41° Northeast 235 270 3,900 -1,380 Descending FlightAware
09:54PM -13.0370 -38.5690 35° Northeast 231 266 3,700 -1,080 Descending FlightAware
09:54PM -13.0190 -38.5540 39° Northeast 223 257 3,300 -1,080 Descending FlightAware
09:55PM -13.0090 -38.5450 41° Northeast 218 251 3,100 -840 Descending FlightAware
09:55PM -12.9910 -38.5300 39° Northeast 211 243 2,800 -900 Descending FlightAware
09:55PM -12.9820 -38.5230 37° Northeast 205 236 2,600 -600 Descending FlightAware
09:56PM -12.9680 -38.5110 40° Northeast 194 223 2,500 -540 Descending FlightAware
09:56PM -12.9580 -38.5020 41° Northeast 186 214 2,300 -540 Descending FlightAware
09:56PM -12.9450 -38.4900 42° Northeast 178 205 2,200 -480 Descending FlightAware
09:56PM -12.9420 -38.4850 58° Northeast 176 203 2,100 -420 Descending FlightAware
09:56PM -12.9400 -38.4770 76° East 167 192 2,100 -240 Level FlightAware
09:57PM -12.9370 -38.4630 78° East 149 171 2,000 -300 Descending FlightAware
09:57PM -12.9340 -38.4500 77° East 131 151 1,900 -300 Descending FlightAware
09:57PM -12.9320 -38.4370 81° East 130 150 1,800 -360 Descending FlightAware
09:58PM -12.9300 -38.4300 74° East 129 148 1,700 -720 Descending FlightAware
09:58PM -12.9270 -38.4150 78° East 130 150 1,400 -720 Descending FlightAware
09:58PM -12.9250 -38.4030 80° East 129 148 1,200 -600 Descending FlightAware
09:59PM -12.9220 -38.3920 74° East 127 146 1,000 -720 Descending FlightAware
09:59PM -12.9200 -38.3780 82° East 128 147 700 -720 Descending FlightAware
09:59PM -12.9170 -38.3660 76° East 128 147 500 -720 Descending FlightAware
10:00PM -12.9150 -38.3560 78° East 128 147 300 -720 Descending FlightAware
10:00PM -12.9130 -38.3450 79° East 127 146 100 -600 Descending FlightAware
10:00PM -12.9110 -38.3330 80° East 125 144 -300 Descending FlightAware